createdAt,value
2019-04-20T00:01:12.549Z,52.67
2019-04-20T00:03:43.937Z,52.76
2019-04-20T00:06:17.385Z,52.18
2019-04-20T00:08:55.666Z,52.27
2019-04-20T00:11:53.613Z,52.27
2019-04-20T00:14:24.031Z,51.86
2019-04-20T00:16:51.153Z,51.79
2019-04-20T00:19:33.651Z,51.88
2019-04-20T00:22:06.244Z,51.59
2019-04-20T00:24:40.540Z,50.48
2019-04-20T00:27:38.920Z,49.58
2019-04-20T00:29:58.702Z,48.83
2019-04-20T00:32:37.714Z,49.02
2019-04-20T00:34:55.860Z,49.10
2019-04-20T00:37:27.855Z,49.66
2019-04-20T00:39:59.747Z,49.81
2019-04-20T00:42:43.628Z,50.02
2019-04-20T00:45:12.885Z,49.98
2019-04-20T00:47:47.775Z,50.26
2019-04-20T00:50:28.441Z,49.93
2019-04-20T00:53:00.621Z,50.50
2019-04-20T00:55:21.692Z,51.65
2019-04-20T00:58:03.734Z,50.73
2019-04-20T01:00:54.282Z,50.19
2019-04-20T01:03:20.928Z,49.70
2019-04-20T01:06:09.752Z,48.16
2019-04-20T01:08:34.083Z,47.37
2019-04-20T01:11:08.214Z,48.39
2019-04-20T01:13:45.947Z,48.98
2019-04-20T01:16:36.846Z,49.06
2019-04-20T01:18:57.600Z,48.76
2019-04-20T01:21:31.799Z,49.31
2019-04-20T01:24:07.895Z,49.88
2019-04-20T01:26:44.599Z,50.29
2019-04-20T01:29:24.083Z,50.27
2019-04-20T01:32:02.326Z,50.99
2019-04-20T01:34:37.868Z,50.78
2019-04-20T01:37:09.270Z,49.60
2019-04-20T01:39:35.288Z,48.98
2019-04-20T01:42:02.786Z,49.91
2019-04-20T01:44:40.189Z,48.94
2019-04-20T01:47:08.880Z,48.66
2019-04-20T01:49:42.263Z,51.16
2019-04-20T01:52:23.402Z,50.04
2019-04-20T01:55:24.489Z,47.96
2019-04-20T01:57:58.331Z,48.05
2019-04-20T02:00:48.086Z,47.69
2019-04-20T02:03:43.864Z,47.94
2019-04-20T02:06:18.865Z,47.98
2019-04-20T02:08:53.145Z,48.07
2019-04-20T02:11:30.551Z,48.32
2019-04-20T02:14:00.423Z,48.30
2019-04-20T02:16:37.235Z,47.93
2019-04-20T02:19:22.094Z,47.86
2019-04-20T02:21:51.714Z,48.43
2019-04-20T02:24:12.655Z,48.12
2019-04-20T02:26:45.113Z,48.09
2019-04-20T02:29:40.695Z,47.46
2019-04-20T02:34:59.797Z,47.72
2019-04-20T02:37:56.868Z,47.67
2019-04-20T02:42:59.957Z,47.25
2019-04-20T02:48:01.485Z,46.44
2019-04-20T02:53:15.532Z,45.99
2019-04-20T02:55:41.165Z,45.40
2019-04-20T03:00:42.673Z,46.10
2019-04-20T03:03:07.078Z,45.90
2019-04-20T03:05:37.319Z,46.12
2019-04-20T03:08:20.178Z,44.47
2019-04-20T03:11:05.870Z,44.76
2019-04-20T03:13:27.004Z,44.59
2019-04-20T03:16:02.023Z,44.79
2019-04-20T03:18:35.001Z,44.63
2019-04-20T03:21:12.853Z,44.13
2019-04-20T03:23:50.047Z,44.05
2019-04-20T03:26:29.143Z,43.93
2019-04-20T03:29:13.957Z,44.05
2019-04-20T03:32:33.050Z,43.72
2019-04-20T03:35:00.575Z,44.00
2019-04-20T03:37:13.163Z,43.87
2019-04-20T03:39:40.741Z,43.61
2019-04-20T03:41:58.449Z,43.40
2019-04-20T03:44:32.922Z,43.02
2019-04-20T03:47:08.925Z,42.92
2019-04-20T03:50:03.310Z,42.65
2019-04-20T03:55:56.615Z,42.89
2019-04-20T03:58:37.884Z,42.38
2019-04-20T04:01:43.401Z,41.61
2019-04-20T04:04:10.652Z,41.13
2019-04-20T04:06:32.829Z,41.66
2019-04-20T04:09:06.922Z,41.42
2019-04-20T04:11:44.503Z,41.88
2019-04-20T04:14:00.883Z,42.29
2019-04-20T04:16:40.938Z,42.86
2019-04-20T04:19:16.216Z,43.71
2019-04-20T04:21:59.480Z,44.32
2019-04-20T04:24:25.998Z,44.62
2019-04-20T04:27:01.954Z,44.75
2019-04-20T04:29:41.912Z,44.81
2019-04-20T04:32:21.233Z,44.85
2019-04-20T04:34:51.446Z,44.75
2019-04-20T04:37:28.974Z,44.31
2019-04-20T04:40:05.038Z,44.37
2019-04-20T04:42:39.259Z,44.81
2019-04-20T04:44:56.546Z,44.95
2019-04-20T04:47:20.032Z,44.54
2019-04-20T04:50:01.995Z,44.80
2019-04-20T04:52:34.173Z,44.88
2019-04-20T04:55:16.251Z,44.20
2019-04-20T04:57:32.704Z,44.92
2019-04-20T05:00:10.241Z,45.92
2019-04-20T05:02:48.956Z,45.64
2019-04-20T05:06:01.808Z,46.41
2019-04-20T05:08:22.028Z,45.60
2019-04-20T05:10:47.893Z,45.88
2019-04-20T05:13:19.960Z,46.22
2019-04-20T05:16:05.195Z,47.31
2019-04-20T05:18:53.024Z,48.00
2019-04-20T05:21:25.817Z,48.74
2019-04-20T05:24:08.523Z,48.86
2019-04-20T05:26:55.641Z,49.41
2019-04-20T05:29:17.132Z,49.65
2019-04-20T05:31:49.290Z,48.78
2019-04-20T05:34:40.069Z,48.37
2019-04-20T05:37:24.028Z,48.51
2019-04-20T05:39:47.458Z,48.76
2019-04-20T05:42:23.443Z,49.50
2019-04-20T05:45:02.017Z,50.51
2019-04-20T05:47:29.187Z,48.18
2019-04-20T05:49:58.719Z,49.23
2019-04-20T05:52:45.569Z,49.70
2019-04-20T05:55:13.065Z,49.69
2019-04-20T05:57:48.174Z,50.53
2019-04-20T06:00:21.792Z,51.13
2019-04-20T06:02:49.799Z,51.50
2019-04-20T06:05:27.846Z,52.15
2019-04-20T06:08:00.676Z,52.00
2019-04-20T06:10:38.208Z,52.15
2019-04-20T06:13:06.284Z,51.56
2019-04-20T06:15:46.595Z,51.82
2019-04-20T06:18:28.513Z,52.22
2019-04-20T06:21:17.239Z,52.21
2019-04-20T06:23:59.401Z,52.80
2019-04-20T06:27:39.962Z,52.13
2019-04-20T06:30:05.992Z,52.53
2019-04-20T06:33:37.364Z,51.54
2019-04-20T06:38:51.854Z,52.19
2019-04-20T06:41:13.912Z,48.27
2019-04-20T06:43:40.844Z,48.06
2019-04-20T06:46:15.270Z,47.79
2019-04-20T06:48:55.007Z,46.94
2019-04-20T06:51:31.092Z,47.03
2019-04-20T06:53:52.517Z,44.54
2019-04-20T06:56:42.041Z,44.75
2019-04-20T06:59:22.826Z,42.92
2019-04-20T07:01:57.015Z,43.12
2019-04-20T07:04:40.309Z,46.96
2019-04-20T07:07:03.732Z,45.07
2019-04-20T07:09:42.022Z,47.14
2019-04-20T07:12:03.043Z,47.01
2019-04-20T07:14:34.528Z,45.40
2019-04-20T07:17:35.983Z,45.25
2019-04-20T07:20:04.547Z,45.23
2019-04-20T07:23:02.316Z,42.73
2019-04-20T07:25:25.570Z,42.57
2019-04-20T07:28:00.744Z,43.02
2019-04-20T07:30:30.863Z,42.05
2019-04-20T07:33:05.482Z,44.03
2019-04-20T07:35:49.316Z,42.18
2019-04-20T07:38:30.064Z,38.81
2019-04-20T07:40:45.882Z,42.58
2019-04-20T07:43:17.413Z,39.40
2019-04-20T07:45:51.633Z,37.92
2019-04-20T07:48:27.724Z,36.08
2019-04-20T07:50:53.385Z,35.99
2019-04-20T07:53:30.533Z,34.50
2019-04-20T07:56:04.884Z,33.66
2019-04-20T07:58:30.465Z,32.90
2019-04-20T08:01:31.379Z,32.40
2019-04-20T08:04:07.851Z,31.72
2019-04-20T08:06:33.054Z,30.73
2019-04-20T08:09:16.263Z,30.11
2019-04-20T08:12:04.883Z,29.78
2019-04-20T08:14:32.012Z,30.39
2019-04-20T08:17:14.431Z,30.75
2019-04-20T08:19:35.639Z,29.48
2019-04-20T08:22:16.813Z,27.91
2019-04-20T08:24:43.577Z,27.42
2019-04-20T08:27:06.509Z,27.16
2019-04-20T08:29:53.019Z,26.68
2019-04-20T08:32:50.591Z,26.83
2019-04-20T08:35:32.144Z,27.29
2019-04-20T08:38:35.237Z,27.60
2019-04-20T08:40:37.339Z,25.25
2019-04-20T08:43:34.904Z,27.39
2019-04-20T08:45:49.206Z,27.31
2019-04-20T08:48:23.391Z,26.24
2019-04-20T08:50:50.678Z,27.37
2019-04-20T08:53:33.497Z,26.69
2019-04-20T08:55:56.766Z,27.03
2019-04-20T08:58:15.978Z,28.84
2019-04-20T09:00:53.639Z,25.91
2019-04-20T09:03:30.229Z,28.37
2019-04-20T09:06:06.485Z,27.12
2019-04-20T09:08:47.740Z,28.41
2019-04-20T09:11:26.176Z,28.78
2019-04-20T09:13:49.602Z,27.68
2019-04-20T09:16:19.930Z,26.04
2019-04-20T09:18:59.881Z,25.34
2019-04-20T09:21:38.045Z,28.02
2019-04-20T09:24:21.527Z,27.03
2019-04-20T09:26:50.570Z,25.29
2019-04-20T09:29:22.580Z,25.77
2019-04-20T09:32:05.854Z,24.65
2019-04-20T09:34:41.731Z,24.63
2019-04-20T09:37:41.276Z,26.12
2019-04-20T09:40:35.208Z,25.26
2019-04-20T09:42:53.325Z,24.46
2019-04-20T09:45:37.599Z,23.86
2019-04-20T09:48:11.618Z,24.39
2019-04-20T09:50:55.020Z,24.21
2019-04-20T09:53:28.514Z,23.06
2019-04-20T09:56:01.639Z,22.87
2019-04-20T09:58:30.910Z,23.93
2019-04-20T10:01:05.236Z,24.68
2019-04-20T10:03:26.996Z,25.43
2019-04-20T10:06:01.459Z,23.57
2019-04-20T10:08:40.371Z,25.73
2019-04-20T10:11:07.650Z,23.03
2019-04-20T10:13:40.488Z,22.89
2019-04-20T10:16:13.546Z,22.49
2019-04-20T10:18:50.055Z,24.78
2019-04-20T10:21:20.096Z,25.97
2019-04-20T10:23:52.609Z,22.74
2019-04-20T10:26:24.764Z,22.84
2019-04-20T10:28:57.499Z,23.12
2019-04-20T10:31:30.615Z,22.03
2019-04-20T10:34:03.922Z,22.61
2019-04-20T10:36:43.755Z,23.30
2019-04-20T10:39:18.467Z,24.61
2019-04-20T10:41:55.737Z,24.18
2019-04-20T10:44:25.037Z,24.85
2019-04-20T10:46:56.927Z,24.61
2019-04-20T10:49:29.153Z,26.37
2019-04-20T10:52:01.958Z,24.79
2019-04-20T10:54:34.376Z,25.43
2019-04-20T10:57:07.826Z,25.80
2019-04-20T10:59:41.852Z,24.59
2019-04-20T11:02:14.020Z,25.69
2019-04-20T11:04:46.581Z,25.32
2019-04-20T11:07:26.086Z,23.91
2019-04-20T11:10:10.388Z,23.85
2019-04-20T11:12:32.541Z,25.07
2019-04-20T11:15:04.458Z,24.79
2019-04-20T11:17:37.137Z,24.43
2019-04-20T11:20:11.271Z,24.47
2019-04-20T11:22:46.401Z,25.33
2019-04-20T11:25:18.190Z,23.98
2019-04-20T11:27:52.282Z,24.70
2019-04-20T11:30:25.782Z,24.94
2019-04-20T11:32:58.144Z,25.19
2019-04-20T11:35:36.985Z,24.86
2019-04-20T11:38:07.365Z,24.56
2019-04-20T11:40:39.587Z,25.51
2019-04-20T11:43:11.557Z,25.79
2019-04-20T11:45:44.618Z,24.61
2019-04-20T11:48:16.532Z,25.22
2019-04-20T11:50:49.552Z,26.05
2019-04-20T11:53:26.667Z,25.40
2019-04-20T11:55:58.519Z,25.24
2019-04-20T11:58:30.448Z,26.14
2019-04-20T12:01:15.366Z,26.28
2019-04-20T12:03:54.322Z,26.72
2019-04-20T12:06:19.036Z,26.89
2019-04-20T12:08:50.804Z,27.47
2019-04-20T12:11:33.027Z,27.77
2019-04-20T12:13:58.646Z,27.88
2019-04-20T12:16:31.993Z,27.39
2019-04-20T12:19:04.396Z,27.89
2019-04-20T12:21:36.885Z,28.39
2019-04-20T12:24:10.136Z,27.22
2019-04-20T12:26:42.750Z,27.61
2019-04-20T12:29:19.598Z,28.12
2019-04-20T12:31:59.108Z,28.27
2019-04-20T12:34:28.695Z,28.63
2019-04-20T12:37:00.788Z,28.79
2019-04-20T12:39:33.226Z,27.49
2019-04-20T12:42:08.004Z,27.72
2019-04-20T12:44:39.622Z,27.91
2019-04-20T12:47:11.961Z,27.66
2019-04-20T12:49:45.512Z,27.61
2019-04-20T12:52:18.613Z,28.24
2019-04-20T12:54:52.634Z,28.06
2019-04-20T12:57:24.777Z,28.32
2019-04-20T12:59:57.291Z,27.95
2019-04-20T13:02:29.441Z,27.93
2019-04-20T13:05:01.699Z,28.22
2019-04-20T13:07:39.592Z,27.48
2019-04-20T13:10:11.924Z,28.67
2019-04-20T13:13:05.676Z,28.25
2019-04-20T13:16:00.509Z,28.12
2019-04-20T13:18:45.524Z,28.36
2019-04-20T13:21:18.695Z,28.57
2019-04-20T13:23:51.157Z,27.47
2019-04-20T13:26:23.174Z,28.39
2019-04-20T13:28:55.164Z,27.87
2019-04-20T13:31:29.657Z,26.81
2019-04-20T13:34:03.464Z,27.32
2019-04-20T13:36:40.266Z,27.72
2019-04-20T13:39:12.251Z,27.57
2019-04-20T13:41:58.742Z,28.01
2019-04-20T13:44:19.971Z,28.00
2019-04-20T13:46:52.221Z,27.57
2019-04-20T13:49:24.992Z,27.06
2019-04-20T13:51:57.131Z,27.28
2019-04-20T13:54:29.856Z,25.46
2019-04-20T13:57:04.015Z,25.07
2019-04-20T13:59:56.087Z,25.29
2019-04-20T14:02:44.820Z,25.55
2019-04-20T14:05:30.825Z,26.35
2019-04-20T14:08:05.356Z,26.20
2019-04-20T14:10:37.812Z,26.55
2019-04-20T14:13:14.821Z,26.50
2019-04-20T14:15:43.054Z,24.85
2019-04-20T14:18:15.190Z,24.62
2019-04-20T14:20:47.943Z,25.15
2019-04-20T14:23:21.166Z,24.75
2019-04-20T14:25:54.561Z,25.51
2019-04-20T14:28:27.471Z,25.84
2019-04-20T14:30:59.277Z,26.00
2019-04-20T14:33:31.036Z,25.97
2019-04-20T14:36:03.227Z,25.72
2019-04-20T14:38:36.174Z,25.47
2019-04-20T14:41:08.663Z,25.71
2019-04-20T14:43:41.082Z,25.19
2019-04-20T14:46:16.837Z,25.13
2019-04-20T14:48:49.080Z,25.35
2019-04-20T14:51:21.571Z,24.43
2019-04-20T14:53:53.826Z,24.96
2019-04-20T14:56:27.319Z,25.76
2019-04-20T14:59:05.361Z,25.37
2019-04-20T15:01:42.859Z,25.47
2019-04-20T15:04:17.907Z,25.13
2019-04-20T15:06:48.721Z,24.53
2019-04-20T15:09:21.011Z,25.26
2019-04-20T15:11:54.756Z,26.74
2019-04-20T15:14:29.045Z,25.58
2019-04-20T15:17:02.455Z,25.55
2019-04-20T15:19:43.333Z,25.59
2019-04-20T15:22:33.794Z,25.96
2019-04-20T15:25:07.630Z,24.94
2019-04-20T15:27:44.021Z,26.19
2019-04-20T15:30:14.107Z,26.15
2019-04-20T15:32:47.091Z,25.92
2019-04-20T15:35:21.011Z,26.67
2019-04-20T15:37:53.246Z,26.81
2019-04-20T15:40:25.156Z,26.29
2019-04-20T15:43:05.908Z,26.16
2019-04-20T15:45:33.647Z,26.52
2019-04-20T15:48:06.089Z,26.35
2019-04-20T15:50:38.219Z,26.23
2019-04-20T15:53:11.347Z,26.97
2019-04-20T15:55:45.627Z,26.36
2019-04-20T15:58:18.470Z,26.22
2019-04-20T16:00:51.317Z,26.57
2019-04-20T16:03:32.920Z,26.55
2019-04-20T16:06:07.468Z,26.57
2019-04-20T16:08:42.181Z,26.42
2019-04-20T16:11:15.276Z,25.96
2019-04-20T16:13:50.391Z,26.44
2019-04-20T16:16:21.675Z,27.00
2019-04-20T16:18:55.046Z,27.39
2019-04-20T16:21:31.233Z,27.63
2019-04-20T16:24:16.906Z,26.15
2019-04-20T16:27:11.625Z,26.22
2019-04-20T16:29:47.360Z,26.41
2019-04-20T16:32:20.527Z,26.95
2019-04-20T16:34:52.778Z,26.34
2019-04-20T16:37:26.367Z,26.86
2019-04-20T16:39:58.678Z,26.89
2019-04-20T16:42:30.562Z,26.81
2019-04-20T16:45:03.291Z,27.42
2019-04-20T16:47:37.313Z,26.92
2019-04-20T16:50:11.023Z,26.86
2019-04-20T16:52:43.316Z,26.94
2019-04-20T16:55:16.568Z,27.01
2019-04-20T16:57:50.080Z,27.62
2019-04-20T17:00:23.270Z,28.45
2019-04-20T17:02:56.271Z,29.89
2019-04-20T17:05:29.242Z,29.54
2019-04-20T17:08:01.288Z,30.00
2019-04-20T17:10:34.917Z,30.37
2019-04-20T17:13:07.020Z,29.96
2019-04-20T17:15:39.333Z,29.73
2019-04-20T17:18:11.856Z,29.96
2019-04-20T17:20:44.346Z,29.98
2019-04-20T17:23:17.541Z,30.25
2019-04-20T17:25:50.437Z,30.33
2019-04-20T17:28:42.741Z,30.66
2019-04-20T17:31:29.636Z,30.72
2019-04-20T17:34:29.953Z,31.79
2019-04-20T17:36:48.566Z,31.30
2019-04-20T17:39:34.002Z,31.78
2019-04-20T17:42:08.599Z,32.01
2019-04-20T17:44:42.826Z,31.82
2019-04-20T17:47:21.667Z,31.64
2019-04-20T17:49:55.963Z,32.59
2019-04-20T17:52:42.837Z,32.17
2019-04-20T17:55:01.201Z,32.23
2019-04-20T17:57:33.276Z,32.40
2019-04-20T18:00:15.202Z,34.07
2019-04-20T18:03:09.949Z,36.03
2019-04-20T18:06:08.341Z,36.59
2019-04-20T18:08:42.463Z,36.64
2019-04-20T18:11:09.158Z,37.55
2019-04-20T18:13:34.230Z,37.67
2019-04-20T18:16:36.841Z,38.15
2019-04-20T18:19:07.786Z,38.22
2019-04-20T18:21:51.834Z,37.97
2019-04-20T18:24:50.758Z,37.49
2019-04-20T18:27:23.244Z,37.66
2019-04-20T18:29:49.100Z,38.69
2019-04-20T18:32:33.472Z,39.57
2019-04-20T18:35:18.305Z,39.15
2019-04-20T18:37:59.379Z,39.50
2019-04-20T18:40:32.401Z,39.45
2019-04-20T18:43:04.568Z,40.16
2019-04-20T18:45:53.123Z,41.01
2019-04-20T18:48:24.974Z,41.29
2019-04-20T18:50:41.776Z,41.72
2019-04-20T18:53:19.035Z,41.85
2019-04-20T18:55:51.543Z,42.00
2019-04-20T18:58:20.410Z,42.30
2019-04-20T19:00:54.186Z,42.56
2019-04-20T19:16:24.770Z,44.79
2019-04-20T19:32:23.705Z,45.85
2019-04-20T19:34:54.655Z,45.75
2019-04-20T19:37:26.063Z,45.29
2019-04-20T19:40:09.533Z,46.08
2019-04-20T19:42:45.502Z,46.27
2019-04-20T19:45:31.659Z,47.23
2019-04-20T19:47:58.269Z,46.91
2019-04-20T19:50:41.016Z,46.99
2019-04-20T19:53:16.551Z,47.37
2019-04-20T19:55:37.867Z,47.51
2019-04-20T19:58:13.385Z,48.39
2019-04-20T20:00:53.458Z,48.66
2019-04-20T20:03:23.849Z,49.17
2019-04-20T20:05:58.246Z,49.44
2019-04-20T20:08:34.775Z,50.06
2019-04-20T20:11:08.470Z,49.88
2019-04-20T20:13:46.102Z,49.36
2019-04-20T20:16:20.325Z,49.72
2019-04-20T20:19:01.085Z,49.97
2019-04-20T20:21:34.567Z,50.58
2019-04-20T20:23:56.426Z,50.82
2019-04-20T20:26:36.232Z,51.63
2019-04-20T20:29:11.959Z,51.53
2019-04-20T20:31:54.121Z,52.30
2019-04-20T20:34:22.094Z,52.64
2019-04-20T20:36:53.848Z,52.14
2019-04-20T20:39:24.239Z,51.91
2019-04-20T20:42:01.576Z,52.29
2019-04-20T20:44:37.678Z,52.29
2019-04-20T20:47:12.945Z,52.59
2019-04-20T20:49:56.901Z,53.37
2019-04-20T20:52:21.869Z,52.50
2019-04-20T20:54:52.559Z,52.99
2019-04-20T20:57:18.817Z,55.10
2019-04-20T20:59:55.611Z,54.57
2019-04-20T21:02:35.467Z,53.83
2019-04-20T21:04:55.551Z,54.11
2019-04-20T21:07:28.831Z,54.12
2019-04-20T21:10:00.818Z,54.57
2019-04-20T21:12:36.459Z,55.03
2019-04-20T21:15:13.437Z,55.40
2019-04-20T21:18:08.544Z,56.01
2019-04-20T21:20:33.102Z,56.41
2019-04-20T21:23:03.944Z,56.66
2019-04-20T21:25:34.517Z,56.34
2019-04-20T21:28:04.813Z,56.77
2019-04-20T21:30:42.885Z,57.01
2019-04-20T21:33:13.201Z,56.85
2019-04-20T21:35:49.834Z,57.00
2019-04-20T21:38:23.153Z,57.07
2019-04-20T21:41:03.413Z,58.07
2019-04-20T21:43:33.839Z,58.21
2019-04-20T21:46:07.217Z,58.09
2019-04-20T21:48:53.071Z,58.52
2019-04-20T21:51:27.536Z,58.93
2019-04-20T21:53:46.147Z,59.57
2019-04-20T21:56:19.785Z,59.73
2019-04-20T21:58:57.259Z,59.94
2019-04-20T22:01:36.495Z,59.55
2019-04-20T22:04:02.691Z,59.69
2019-04-20T22:06:36.297Z,60.31
2019-04-20T22:09:12.704Z,60.51
2019-04-20T22:11:48.108Z,60.37
2019-04-20T22:14:24.005Z,60.46
2019-04-20T22:16:58.598Z,60.53
2019-04-20T22:19:38.736Z,60.02
2019-04-20T22:22:16.401Z,59.35
2019-04-20T22:24:53.650Z,59.69
2019-04-20T22:27:20.318Z,59.39
2019-04-20T22:29:48.135Z,59.24
2019-04-20T22:32:22.589Z,59.38
2019-04-20T22:35:01.351Z,59.65
2019-04-20T22:37:39.990Z,59.53
2019-04-20T22:40:19.494Z,59.05
2019-04-20T22:42:49.479Z,59.53
2019-04-20T22:45:19.223Z,60.02
2019-04-20T22:47:52.975Z,60.11
2019-04-20T22:50:38.246Z,60.19
2019-04-20T22:53:21.729Z,60.70
2019-04-20T22:56:01.413Z,60.65
2019-04-20T22:58:28.860Z,60.58
2019-04-20T23:00:53.588Z,60.33
2019-04-20T23:03:20.970Z,60.86
2019-04-20T23:05:52.786Z,61.18
2019-04-20T23:08:26.546Z,60.86
2019-04-20T23:10:59.703Z,60.83
2019-04-20T23:13:39.345Z,60.77
2019-04-20T23:16:09.296Z,60.43
2019-04-20T23:18:42.213Z,60.73
2019-04-20T23:21:17.344Z,61.14
2019-04-20T23:23:49.131Z,60.59
2019-04-20T23:26:25.520Z,61.79
2019-04-20T23:29:00.451Z,62.13
2019-04-20T23:31:32.070Z,61.80
2019-04-20T23:34:10.320Z,61.82
2019-04-20T23:36:42.368Z,62.65
2019-04-20T23:39:13.028Z,62.30
2019-04-20T23:41:53.748Z,62.26
2019-04-20T23:44:25.195Z,61.18
2019-04-20T23:47:16.992Z,61.18
2019-04-20T23:50:17.853Z,61.05
2019-04-20T23:52:59.350Z,60.68
2019-04-20T23:55:13.223Z,60.25
2019-04-20T23:57:45.984Z,59.89
